Time;durP1;ratioP1;P1;durP2;ratioP2;P2;SDS_P1;SDS_P2;PMS_P1;PMS_P2;Temp;Humidity;BMP_temperature;BMP_pressure;BME280_temperature;BME280_humidity;BME280_pressure;Samples;Min_cycle;Max_cycle;Signal;HPM_P1;HPM_P2
2021/12/20 00:01:44;;;;;;;4.57;1.23;;;6.90;99.90;;;;;;4903617;29;20080;-88
2021/12/20 00:04:10;;;;;;;3.55;0.90;;;6.90;99.90;;;;;;4902180;29;20021;-90
2021/12/20 00:06:36;;;;;;;5.72;1.63;;;6.90;99.90;;;;;;4903599;29;20044;-86
2021/12/20 00:09:03;;;;;;;5.43;1.25;;;6.90;99.90;;;;;;4902041;29;20092;-87
2021/12/20 00:11:29;;;;;;;4.13;1.10;;;6.90;99.90;;;;;;4902606;29;20104;-88
2021/12/20 00:13:54;;;;;;;7.22;1.52;;;6.90;99.90;;;;;;4903066;29;20029;-88
2021/12/20 00:16:21;;;;;;;6.57;1.55;;;6.90;99.90;;;;;;4902367;29;20059;-89
2021/12/20 00:18:47;;;;;;;6.40;1.17;;;6.90;99.90;;;;;;4903886;29;20052;-87
2021/12/20 00:21:13;;;;;;;4.10;1.20;;;6.90;99.90;;;;;;4904776;29;20047;-89
2021/12/20 00:23:39;;;;;;;4.28;1.15;;;6.90;99.90;;;;;;4905018;29;20032;-85
2021/12/20 00:26:05;;;;;;;3.50;1.65;;;6.90;99.90;;;;;;4906044;29;20029;-89
2021/12/20 00:28:30;;;;;;;5.25;1.30;;;6.80;99.90;;;;;;4903843;29;20037;-88
2021/12/20 00:30:56;;;;;;;6.07;1.30;;;6.80;99.90;;;;;;4905432;29;20457;-88
2021/12/20 00:33:22;;;;;;;8.07;1.33;;;6.80;99.90;;;;;;4906836;29;20028;-90
2021/12/20 00:35:49;;;;;;;9.45;1.65;;;6.70;99.90;;;;;;4904481;29;20031;-89
2021/12/20 00:40:59;;;;;;;6.28;1.27;;;6.70;99.90;;;;;;4909245;29;20445;-87
2021/12/20 00:43:25;;;;;;;10.63;1.58;;;6.70;99.90;;;;;;4905740;29;20033;-89
2021/12/20 00:45:51;;;;;;;7.03;1.48;;;6.70;99.90;;;;;;4904542;29;20468;-86
2021/12/20 00:48:17;;;;;;;5.75;1.30;;;6.70;99.90;;;;;;4907399;29;20065;-88
2021/12/20 00:50:43;;;;;;;6.43;1.42;;;6.70;99.90;;;;;;4901030;29;20076;-89
2021/12/20 00:53:10;;;;;;;8.07;1.60;;;6.60;99.90;;;;;;4899908;29;20029;-89
2021/12/20 00:55:36;;;;;;;7.78;1.20;;;6.70;99.90;;;;;;4900032;29;20479;-88
2021/12/20 00:58:02;;;;;;;3.92;0.90;;;6.70;99.90;;;;;;4901934;29;20036;-91
2021/12/20 01:00:35;;;;;;;7.50;1.25;;;6.70;99.90;;;;;;4901464;29;20032;-89
2021/12/20 01:03:03;;;;;;;12.63;2.03;;;6.70;99.90;;;;;;4900683;29;20020;-89
2021/12/20 01:05:29;;;;;;;6.38;1.17;;;6.60;99.90;;;;;;4901853;29;20088;-88
2021/12/20 01:07:58;;;;;;;8.48;1.75;;;6.70;99.90;;;;;;4900576;29;20037;-89
2021/12/20 01:10:25;;;;;;;9.20;1.50;;;6.70;99.90;;;;;;4901149;29;20364;-88
2021/12/20 01:12:54;;;;;;;9.18;1.60;;;6.60;99.90;;;;;;4901633;29;20494;-89
2021/12/20 01:15:32;;;;;;;8.55;1.45;;;6.70;99.90;;;;;;4900191;29;20120;-89
2021/12/20 01:17:58;;;;;;;9.85;1.52;;;6.60;99.90;;;;;;4900358;29;20041;-89
2021/12/20 01:20:25;;;;;;;10.40;1.73;;;6.70;99.90;;;;;;4901387;29;20443;-90
2021/12/20 01:22:51;;;;;;;11.10;2.10;;;6.60;99.90;;;;;;4900191;29;20080;-88
2021/12/20 01:25:19;;;;;;;9.88;1.60;;;6.60;99.90;;;;;;4901373;29;20028;-89
2021/12/20 01:27:45;;;;;;;11.90;1.88;;;6.60;99.90;;;;;;4900304;29;20032;-88
2021/12/20 01:30:13;;;;;;;6.65;1.45;;;6.60;99.90;;;;;;4900451;29;20029;-89
2021/12/20 01:32:40;;;;;;;10.57;2.13;;;6.60;99.90;;;;;;4901464;29;20021;-88
2021/12/20 01:35:07;;;;;;;8.63;1.98;;;6.60;99.90;;;;;;4899994;29;20025;-88
2021/12/20 01:37:34;;;;;;;9.50;1.63;;;6.60;99.90;;;;;;4900216;29;20025;-90
2021/12/20 01:40:00;;;;;;;7.82;1.65;;;6.60;99.90;;;;;;4900367;29;20032;-89
2021/12/20 01:42:29;;;;;;;8.27;1.38;;;6.60;99.90;;;;;;4900208;29;20020;-89
2021/12/20 01:44:57;;;;;;;7.40;1.52;;;6.60;99.90;;;;;;4901760;29;20029;-89
2021/12/20 01:47:34;;;;;;;6.40;1.35;;;6.50;99.90;;;;;;4900854;29;20043;-89
2021/12/20 01:50:07;;;;;;;8.30;1.48;;;6.50;99.90;;;;;;4899986;29;20025;-90
2021/12/20 01:52:41;;;;;;;;;;;6.50;99.90;;;;;;4899964;29;20115;-91
2021/12/20 01:55:09;;;;;;;9.00;1.65;;;6.50;99.90;;;;;;4899553;29;20040;-90
2021/12/20 01:57:35;;;;;;;8.25;1.40;;;6.50;99.90;;;;;;4900248;29;20020;-89
2021/12/20 02:00:04;;;;;;;7.50;1.20;;;6.50;99.90;;;;;;4900286;29;20032;-90
2021/12/20 02:02:30;;;;;;;6.60;1.50;;;6.50;99.90;;;;;;4900930;29;20035;-89
2021/12/20 02:05:04;;;;;;;11.93;2.20;;;6.50;99.90;;;;;;4901062;29;20387;-90
2021/12/20 02:07:47;;;;;;;6.28;1.15;;;6.50;99.90;;;;;;4900958;29;20067;-90
2021/12/20 02:10:13;;;;;;;7.93;1.13;;;6.50;99.90;;;;;;4901056;29;20029;-90
2021/12/20 02:12:39;;;;;;;6.60;1.23;;;6.50;99.90;;;;;;4884721;29;20082;-87
2021/12/20 02:15:05;;;;;;;8.15;1.63;;;6.50;99.90;;;;;;4900668;29;20394;-90
2021/12/20 02:17:31;;;;;;;10.98;1.58;;;6.40;99.90;;;;;;4901427;29;20498;-87
2021/12/20 02:20:00;;;;;;;10.15;1.65;;;6.40;99.90;;;;;;4901251;29;20024;-88
2021/12/20 02:22:26;;;;;;;4.50;1.10;;;6.40;99.90;;;;;;4901523;29;20028;-90
2021/12/20 02:24:52;;;;;;;7.22;1.38;;;6.40;99.90;;;;;;4900782;29;20040;-89
2021/12/20 02:27:17;;;;;;;10.90;1.65;;;6.40;99.90;;;;;;4900555;29;20040;-90
2021/12/20 02:29:58;;;;;;;11.10;1.90;;;6.40;99.90;;;;;;4900505;29;20024;-88
2021/12/20 02:37:54;;;;;;;10.18;2.25;;;6.40;99.90;;;;;;4900817;29;20039;-91
2021/12/20 02:40:21;;;;;;;10.95;1.50;;;6.40;99.90;;;;;;4900808;29;20052;-89
2021/12/20 02:42:49;;;;;;;11.70;2.20;;;6.30;99.90;;;;;;4899151;29;20017;-88
2021/12/20 02:45:16;;;;;;;9.75;1.67;;;6.30;99.90;;;;;;4898958;29;20510;-90
2021/12/20 02:47:48;;;;;;;12.52;2.22;;;6.30;99.90;;;;;;4900385;29;20049;-87
2021/12/20 02:50:14;;;;;;;9.73;1.90;;;6.30;99.90;;;;;;4898911;29;20036;-87
2021/12/20 02:52:40;;;;;;;8.45;1.92;;;6.30;99.90;;;;;;4898755;29;20054;-90
2021/12/20 02:55:08;;;;;;;8.27;2.30;;;6.30;99.90;;;;;;4899241;29;20023;-91
2021/12/20 02:57:35;;;;;;;10.15;1.88;;;6.30;99.90;;;;;;4898808;29;20047;-89
2021/12/20 03:00:01;;;;;;;10.52;1.67;;;6.30;99.90;;;;;;4899297;29;20558;-87
2021/12/20 03:02:26;;;;;;;9.73;1.67;;;6.30;99.90;;;;;;4900488;29;20032;-88
2021/12/20 03:04:52;;;;;;;13.07;2.15;;;6.30;99.90;;;;;;4898827;29;20017;-89
2021/12/20 03:07:23;;;;;;;8.38;1.60;;;6.30;99.90;;;;;;4899988;29;20075;-87
2021/12/20 03:09:55;;;;;;;7.13;1.58;;;6.40;99.90;;;;;;4900053;29;20479;-89
2021/12/20 03:12:23;;;;;;;11.38;2.25;;;6.30;99.90;;;;;;4900533;29;20052;-88
2021/12/20 03:14:51;;;;;;;9.32;1.58;;;6.30;99.90;;;;;;4898513;29;20111;-88
2021/12/20 03:17:17;;;;;;;8.48;1.45;;;6.30;99.90;;;;;;4898776;29;20116;-89
2021/12/20 03:19:42;;;;;;;8.13;1.70;;;6.30;99.90;;;;;;4898831;29;20124;-90
2021/12/20 03:22:08;;;;;;;12.68;2.10;;;6.30;99.90;;;;;;4899712;29;20041;-89
2021/12/20 03:24:34;;;;;;;8.68;1.70;;;6.30;99.90;;;;;;4899827;29;20104;-89
2021/12/20 03:27:00;;;;;;;8.77;1.67;;;6.30;99.90;;;;;;4899079;29;20096;-88
2021/12/20 03:29:26;;;;;;;9.35;1.63;;;6.30;99.90;;;;;;4900089;29;20096;-87
2021/12/20 03:31:51;;;;;;;7.60;1.52;;;6.30;99.90;;;;;;4900520;29;20088;-86
2021/12/20 03:34:18;;;;;;;10.75;1.92;;;6.30;99.90;;;;;;4900167;29;20021;-89
2021/12/20 03:36:44;;;;;;;13.13;2.13;;;6.30;99.90;;;;;;4899380;29;20127;-91
2021/12/20 03:39:10;;;;;;;11.52;1.80;;;6.30;99.90;;;;;;4898937;29;20064;-89
2021/12/20 03:41:37;;;;;;;7.65;1.50;;;6.30;99.90;;;;;;4901699;29;20029;-88
2021/12/20 03:44:04;;;;;;;8.07;1.73;;;6.30;99.90;;;;;;4903700;29;20048;-87
2021/12/20 03:46:29;;;;;;;10.00;2.80;;;6.30;99.90;;;;;;4913593;29;20032;-87
2021/12/20 03:48:55;;;;;;;10.27;2.55;;;6.30;99.90;;;;;;4914884;29;20031;-83
2021/12/20 03:51:21;;;;;;;9.20;1.60;;;6.20;99.90;;;;;;4917644;29;20033;-84
2021/12/20 03:53:47;;;;;;;9.00;1.80;;;6.20;99.90;;;;;;4916937;29;20033;-84
2021/12/20 03:56:12;;;;;;;7.88;1.60;;;6.20;99.90;;;;;;4914849;29;20053;-85
2021/12/20 03:58:38;;;;;;;10.00;1.80;;;6.20;99.90;;;;;;4910739;29;20127;-88
2021/12/20 04:01:08;;;;;;;12.93;2.65;;;6.20;99.90;;;;;;4903901;29;20033;-82
2021/12/20 04:03:35;;;;;;;12.05;2.03;;;6.30;99.90;;;;;;4900326;29;20033;-89
2021/12/20 04:06:04;;;;;;;9.80;2.28;;;6.20;99.90;;;;;;4901787;29;20027;-87
2021/12/20 04:08:30;;;;;;;13.77;2.30;;;6.20;99.90;;;;;;4900180;29;20069;-88
2021/12/20 04:10:57;;;;;;;13.43;1.95;;;6.20;99.90;;;;;;4897661;29;20025;-87
2021/12/20 04:13:24;;;;;;;12.77;1.85;;;6.20;99.90;;;;;;4900315;29;20033;-87
2021/12/20 04:15:49;;;;;;;10.50;2.42;;;6.20;99.90;;;;;;4898016;29;20052;-88
2021/12/20 04:18:15;;;;;;;10.73;1.60;;;6.20;99.90;;;;;;4901495;29;20411;-88
2021/12/20 04:20:41;;;;;;;6.75;2.08;;;6.20;99.90;;;;;;4902233;29;20053;-89
2021/12/20 04:23:06;;;;;;;8.07;1.83;;;6.20;99.90;;;;;;4901929;29;20025;-89
2021/12/20 04:25:33;;;;;;;14.43;2.00;;;6.20;99.90;;;;;;4902554;29;20051;-89
2021/12/20 04:28:00;;;;;;;13.77;2.28;;;6.10;99.90;;;;;;4901327;29;20120;-88
2021/12/20 04:30:28;;;;;;;13.38;1.73;;;6.20;99.90;;;;;;4902565;29;20043;-87
2021/12/20 04:32:54;;;;;;;9.90;1.73;;;6.20;99.90;;;;;;4902698;29;20089;-84
2021/12/20 04:35:20;;;;;;;9.32;1.65;;;6.20;99.90;;;;;;4901300;29;20024;-88
2021/12/20 04:37:47;;;;;;;10.00;1.70;;;6.10;99.90;;;;;;4902883;29;20060;-88
2021/12/20 04:40:19;;;;;;;12.07;2.53;;;6.10;99.90;;;;;;4902049;29;20107;-86
2021/12/20 04:42:45;;;;;;;8.15;1.45;;;6.10;99.90;;;;;;4902704;29;20388;-88
2021/12/20 04:45:11;;;;;;;7.00;1.60;;;6.20;99.90;;;;;;4902030;29;20028;-86
2021/12/20 04:47:36;;;;;;;8.88;1.40;;;6.20;99.90;;;;;;4902154;29;20067;-90
2021/12/20 04:50:03;;;;;;;6.40;1.20;;;6.10;99.90;;;;;;4901261;29;20020;-86
2021/12/20 04:52:29;;;;;;;8.65;1.77;;;6.20;99.90;;;;;;4902374;29;20183;-87
2021/12/20 04:54:54;;;;;;;6.97;1.45;;;6.20;99.90;;;;;;4902441;29;20052;-89
2021/12/20 04:57:20;;;;;;;10.82;2.05;;;6.20;99.90;;;;;;4902095;29;20104;-89
2021/12/20 04:59:46;;;;;;;8.55;1.33;;;6.10;99.90;;;;;;4901164;29;20157;-88
2021/12/20 05:02:11;;;;;;;6.82;1.55;;;6.20;99.90;;;;;;4904440;29;20393;-87
2021/12/20 05:04:37;;;;;;;5.55;1.23;;;6.20;99.90;;;;;;4903282;29;20025;-88
2021/12/20 05:07:03;;;;;;;7.15;1.27;;;6.20;99.90;;;;;;4901708;29;20063;-89
2021/12/20 05:09:36;;;;;;;9.25;1.50;;;6.10;99.90;;;;;;4902101;29;20028;-89
2021/12/20 05:12:11;;;;;;;5.63;0.90;;;6.20;99.90;;;;;;4901760;29;20025;-88
2021/12/20 05:14:38;;;;;;;5.45;1.27;;;6.10;99.90;;;;;;4902155;29;20025;-90
2021/12/20 05:17:03;;;;;;;7.57;1.20;;;6.10;99.90;;;;;;4910041;29;20056;-85
2021/12/20 05:19:29;;;;;;;5.38;1.33;;;6.10;99.90;;;;;;4916441;29;20036;-83
2021/12/20 05:21:56;;;;;;;7.82;1.83;;;6.10;99.90;;;;;;4916797;29;20019;-86
2021/12/20 05:24:22;;;;;;;7.30;1.60;;;6.10;99.90;;;;;;4924080;29;20035;-85
2021/12/20 05:26:47;;;;;;;6.80;1.40;;;6.10;99.90;;;;;;4923996;29;20056;-85
2021/12/20 05:29:13;;;;;;;10.57;1.30;;;6.10;99.90;;;;;;4923757;29;20280;-86
2021/12/20 05:31:39;;;;;;;11.65;1.67;;;6.10;99.90;;;;;;4923735;29;20047;-85
2021/12/20 05:34:04;;;;;;;9.55;1.80;;;6.20;99.90;;;;;;4923453;29;20032;-90
2021/12/20 05:36:30;;;;;;;9.45;1.85;;;6.10;99.90;;;;;;4918946;29;20102;-86
2021/12/20 05:38:56;;;;;;;8.77;1.40;;;6.10;99.90;;;;;;4920754;29;20021;-89
2021/12/20 05:41:21;;;;;;;7.43;1.42;;;6.10;99.90;;;;;;4920386;29;20016;-88
2021/12/20 05:43:48;;;;;;;10.25;2.10;;;6.10;99.90;;;;;;4920371;29;20029;-87
2021/12/20 05:46:14;;;;;;;7.57;1.63;;;6.10;99.90;;;;;;4920042;29;20072;-88
2021/12/20 05:48:40;;;;;;;6.68;1.30;;;6.10;99.90;;;;;;4901652;29;20104;-87
2021/12/20 05:51:05;;;;;;;10.40;1.95;;;6.10;99.90;;;;;;4901688;29;20097;-84
2021/12/20 05:53:31;;;;;;;7.78;1.30;;;6.00;99.90;;;;;;4905645;29;20020;-88
2021/12/20 05:55:57;;;;;;;6.60;1.35;;;6.00;99.90;;;;;;4900950;29;20035;-86
2021/12/20 05:58:25;;;;;;;6.65;1.02;;;6.00;99.90;;;;;;4899676;29;20029;-86
2021/12/20 06:00:51;;;;;;;8.98;1.75;;;6.00;99.90;;;;;;4898550;29;20036;-87
2021/12/20 06:03:16;;;;;;;7.32;2.08;;;5.90;99.90;;;;;;4898723;29;20038;-88
2021/12/20 06:05:43;;;;;;;7.93;2.05;;;5.90;99.90;;;;;;4899022;29;20088;-89
2021/12/20 06:08:09;;;;;;;4.25;1.15;;;5.90;99.90;;;;;;4899004;29;20028;-90
2021/12/20 06:10:35;;;;;;;5.75;1.77;;;5.90;99.90;;;;;;4898179;29;20032;-87
2021/12/20 06:13:02;;;;;;;5.82;1.00;;;5.90;99.90;;;;;;4902219;29;20056;-85
2021/12/20 06:15:28;;;;;;;7.65;1.58;;;5.90;99.90;;;;;;4905182;29;20140;-88
2021/12/20 06:17:54;;;;;;;9.93;1.42;;;5.90;99.90;;;;;;4901265;29;20068;-86
2021/12/20 06:20:20;;;;;;;7.97;1.90;;;5.90;99.90;;;;;;4906825;29;20029;-84
2021/12/20 06:22:45;;;;;;;9.63;1.70;;;5.90;99.90;;;;;;4907833;29;20067;-87
2021/12/20 06:25:12;;;;;;;9.05;1.55;;;5.90;99.90;;;;;;4907170;29;20471;-88
2021/12/20 06:27:38;;;;;;;7.18;1.73;;;5.90;99.90;;;;;;4900999;29;20033;-88
2021/12/20 06:30:08;;;;;;;10.23;1.95;;;5.90;99.90;;;;;;4899405;29;20064;-87
2021/12/20 06:32:35;;;;;;;9.50;1.45;;;5.90;99.90;;;;;;4896065;29;20099;-88
2021/12/20 06:35:01;;;;;;;5.50;1.30;;;5.80;99.90;;;;;;4897068;29;20036;-87
2021/12/20 06:37:27;;;;;;;7.82;1.30;;;5.90;99.90;;;;;;4895298;29;20025;-87
2021/12/20 06:39:52;;;;;;;9.18;1.45;;;5.80;99.90;;;;;;4893634;29;20091;-88
2021/12/20 06:42:18;;;;;;;7.00;1.33;;;5.80;99.90;;;;;;4893527;29;20037;-86
2021/12/20 06:44:44;;;;;;;6.53;1.70;;;5.80;99.90;;;;;;4894987;29;20040;-87
2021/12/20 06:47:10;;;;;;;6.90;1.60;;;5.80;99.90;;;;;;4894827;29;20041;-89
2021/12/20 06:49:36;;;;;;;8.93;2.00;;;5.70;99.90;;;;;;4899593;29;20052;-89
2021/12/20 06:52:03;;;;;;;7.47;1.10;;;5.80;99.90;;;;;;4895424;29;20059;-87
2021/12/20 06:54:30;;;;;;;9.02;1.30;;;5.80;99.90;;;;;;4896768;29;20025;-90
2021/12/20 06:56:55;;;;;;;6.75;1.35;;;5.80;99.90;;;;;;4900560;29;20032;-86
2021/12/20 06:59:22;;;;;;;6.25;1.13;;;5.80;99.90;;;;;;4907031;29;20111;-87
2021/12/20 07:01:48;;;;;;;5.32;1.00;;;5.80;99.90;;;;;;4904166;29;20016;-87
2021/12/20 07:04:15;;;;;;;4.72;1.35;;;5.80;99.90;;;;;;4902829;29;20455;-85
2021/12/20 07:06:41;;;;;;;7.68;1.25;;;5.80;99.90;;;;;;4901227;29;20108;-87
2021/12/20 07:09:08;;;;;;;6.15;0.98;;;5.90;99.90;;;;;;4900385;29;20044;-86
2021/12/20 07:11:34;;;;;;;5.65;1.08;;;5.80;99.90;;;;;;4900300;29;20694;-86
2021/12/20 07:14:00;;;;;;;5.63;1.23;;;5.80;99.90;;;;;;4894410;29;20032;-87
2021/12/20 07:16:25;;;;;;;5.82;1.23;;;5.90;99.90;;;;;;4895304;29;20089;-87
2021/12/20 07:18:51;;;;;;;8.90;1.20;;;5.80;99.90;;;;;;4896030;29;20049;-86
2021/12/20 07:21:18;;;;;;;7.85;1.30;;;5.80;99.90;;;;;;4896344;29;20088;-86
2021/12/20 07:23:44;;;;;;;7.68;1.55;;;5.80;99.90;;;;;;4897898;29;20036;-88
2021/12/20 07:26:11;;;;;;;7.18;1.60;;;5.80;99.90;;;;;;4895440;29;20040;-86
2021/12/20 07:28:39;;;;;;;8.15;1.48;;;5.80;99.90;;;;;;4899077;29;20021;-89
2021/12/20 07:31:04;;;;;;;6.70;1.10;;;5.80;99.90;;;;;;4898698;29;20070;-88
2021/12/20 07:33:30;;;;;;;5.53;1.20;;;5.90;99.90;;;;;;4907448;29;20025;-87
2021/12/20 07:35:56;;;;;;;4.95;1.20;;;5.80;99.90;;;;;;4905234;29;20032;-86
2021/12/20 07:38:22;;;;;;;4.15;0.93;;;5.80;99.90;;;;;;4905703;29;20468;-86
2021/12/20 07:40:49;;;;;;;5.90;1.10;;;5.80;99.90;;;;;;4907021;29;20056;-90
2021/12/20 07:43:17;;;;;;;7.07;1.00;;;5.90;99.90;;;;;;4898716;29;20020;-91
2021/12/20 07:45:47;;;;;;;6.03;1.08;;;5.80;99.90;;;;;;4896130;29;20033;-90
2021/12/20 07:48:14;;;;;;;7.65;1.10;;;5.80;99.90;;;;;;4896806;29;20049;-89
2021/12/20 07:50:40;;;;;;;4.13;1.10;;;5.80;99.90;;;;;;4898134;29;20025;-89
2021/12/20 07:53:05;;;;;;;12.20;2.08;;;5.80;99.90;;;;;;4901819;29;20376;-89
2021/12/20 07:55:31;;;;;;;4.53;1.00;;;5.80;99.90;;;;;;4900317;29;20071;-90
2021/12/20 07:57:58;;;;;;;7.75;1.48;;;5.80;99.90;;;;;;4904842;29;20072;-93
2021/12/20 08:00:31;;;;;;;10.68;1.33;;;5.80;99.90;;;;;;4906252;29;20044;-92
2021/12/20 08:03:03;;;;;;;4.72;1.08;;;5.80;99.90;;;;;;4906036;29;20028;-93
2021/12/20 08:05:32;;;;;;;5.43;0.98;;;5.80;99.90;;;;;;4906944;29;20040;-93
2021/12/20 08:08:01;;;;;;;3.83;1.05;;;5.80;99.90;;;;;;4913279;29;20077;-94
2021/12/20 08:10:30;;;;;;;6.90;1.05;;;5.80;99.90;;;;;;4920831;29;20009;-93
2021/12/20 08:12:56;;;;;;;6.05;1.88;;;5.70;99.90;;;;;;4922574;29;20029;-88
2021/12/20 08:15:22;;;;;;;4.40;0.88;;;5.80;99.90;;;;;;4918805;29;20048;-88
2021/12/20 08:17:52;;;;;;;6.80;1.10;;;5.80;99.90;;;;;;4915757;29;20059;-88
2021/12/20 08:20:18;;;;;;;6.43;1.10;;;5.80;99.90;;;;;;4912895;29;20032;-91
2021/12/20 08:22:44;;;;;;;4.05;0.80;;;5.80;99.90;;;;;;4913758;29;20063;-91
2021/12/20 08:25:12;;;;;;;5.45;1.20;;;5.80;99.90;;;;;;4910622;29;20044;-90
2021/12/20 08:27:39;;;;;;;5.60;1.42;;;5.80;99.90;;;;;;4906984;29;20073;-89
2021/12/20 08:30:08;;;;;;;6.45;1.10;;;5.90;99.90;;;;;;4922693;29;20028;-89
2021/12/20 08:32:37;;;;;;;5.95;1.27;;;5.90;99.90;;;;;;4904882;29;20045;-90
2021/12/20 08:35:05;;;;;;;5.05;1.23;;;5.80;99.90;;;;;;4885420;29;20032;-88
2021/12/20 08:37:31;;;;;;;4.43;1.02;;;5.90;99.90;;;;;;4901071;29;20025;-87
2021/12/20 08:39:57;;;;;;;8.88;1.42;;;5.90;99.90;;;;;;4905059;29;20035;-90
2021/12/20 08:42:23;;;;;;;3.25;1.02;;;5.90;99.90;;;;;;4906060;29;20463;-88
2021/12/20 08:44:50;;;;;;;7.60;1.10;;;5.90;99.90;;;;;;4903438;29;20099;-89
2021/12/20 08:47:24;;;;;;;8.15;1.40;;;6.00;99.90;;;;;;4903199;29;20088;-89
2021/12/20 08:49:49;;;;;;;6.05;1.30;;;6.00;99.90;;;;;;4909947;29;20032;-85
2021/12/20 08:52:15;;;;;;;4.63;1.35;;;6.00;99.90;;;;;;4916698;29;20040;-85
2021/12/20 08:54:41;;;;;;;5.13;1.67;;;6.10;99.90;;;;;;4915464;29;20039;-84
2021/12/20 08:57:07;;;;;;;5.65;1.27;;;6.10;99.90;;;;;;4915664;29;20435;-82
2021/12/20 08:59:35;;;;;;;6.10;1.08;;;6.10;99.90;;;;;;4913925;29;20475;-85
2021/12/20 09:02:03;;;;;;;8.27;1.35;;;6.10;99.90;;;;;;4916042;29;20051;-86
2021/12/20 09:04:28;;;;;;;5.82;1.30;;;6.20;99.90;;;;;;4912608;29;20028;-87
2021/12/20 09:06:54;;;;;;;7.40;1.58;;;6.20;99.90;;;;;;4916034;29;20080;-87
2021/12/20 09:09:21;;;;;;;8.10;1.60;;;6.30;99.90;;;;;;4914666;29;20036;-87
2021/12/20 09:11:46;;;;;;;6.00;1.88;;;6.30;99.90;;;;;;4917423;29;20032;-85
2021/12/20 09:14:14;;;;;;;6.70;1.33;;;6.30;99.90;;;;;;4914820;29;20056;-85
2021/12/20 09:16:41;;;;;;;6.32;1.48;;;6.30;99.90;;;;;;4912113;29;20049;-85
2021/12/20 09:19:06;;;;;;;8.68;1.40;;;6.30;99.90;;;;;;4913340;29;20039;-87
2021/12/20 09:21:34;;;;;;;7.07;1.73;;;6.30;99.90;;;;;;4910273;29;20072;-89
2021/12/20 09:24:07;;;;;;;6.38;1.88;;;6.40;99.90;;;;;;4906151;29;20087;-86
2021/12/20 09:26:33;;;;;;;4.13;0.80;;;6.40;99.90;;;;;;4906238;29;20386;-89
2021/12/20 09:28:59;;;;;;;7.28;1.60;;;6.40;99.90;;;;;;4903861;29;20104;-87
2021/12/20 09:31:25;;;;;;;5.03;1.20;;;6.50;99.90;;;;;;4906374;29;20032;-88
2021/12/20 09:33:50;;;;;;;4.38;1.10;;;6.60;99.90;;;;;;4905981;29;20021;-87
2021/12/20 09:36:16;;;;;;;4.80;1.30;;;6.70;99.90;;;;;;4906456;29;20436;-88
2021/12/20 09:38:42;;;;;;;5.32;1.30;;;6.80;99.90;;;;;;4906474;29;20028;-86
2021/12/20 09:43:41;;;;;;;3.88;1.20;;;7.20;99.90;;;;;;4906035;29;20037;-83
2021/12/20 09:46:07;;;;;;;7.20;1.42;;;7.50;99.90;;;;;;4908418;29;20012;-87
2021/12/20 09:48:36;;;;;;;7.85;1.40;;;7.60;99.90;;;;;;4904941;29;20056;-87
2021/12/20 09:51:04;;;;;;;8.73;1.55;;;7.80;99.90;;;;;;4902480;29;20086;-88
2021/12/20 09:53:31;;;;;;;6.07;1.33;;;8.50;99.90;;;;;;4899279;29;20037;-85
2021/12/20 09:55:59;;;;;;;7.35;1.30;;;9.10;99.90;;;;;;4903864;29;20387;-87
2021/12/20 09:58:34;;;;;;;7.00;1.52;;;9.30;99.90;;;;;;4904020;29;20119;-83
2021/12/20 10:01:01;;;;;;;7.18;1.83;;;9.30;99.90;;;;;;4906641;29;20032;-85
2021/12/20 10:03:28;;;;;;;7.03;1.42;;;9.20;99.90;;;;;;4905961;29;20044;-84
2021/12/20 10:05:55;;;;;;;12.43;1.98;;;9.10;99.90;;;;;;4905553;29;20162;-87
2021/12/20 10:08:31;;;;;;;6.03;1.40;;;9.20;99.90;;;;;;4889941;29;20033;-88
2021/12/20 10:10:57;;;;;;;7.63;1.90;;;10.20;99.90;;;;;;4889657;29;20018;-87
2021/12/20 10:13:24;;;;;;;8.02;2.22;;;11.50;99.90;;;;;;4905755;29;20084;-86
2021/12/20 10:15:51;;;;;;;8.13;1.40;;;12.30;99.90;;;;;;4902826;29;20036;-88
2021/12/20 10:18:17;;;;;;;7.97;1.73;;;13.00;99.90;;;;;;4902219;29;20036;-88
2021/12/20 10:20:55;;;;;;;6.32;1.90;;;13.70;99.90;;;;;;4900916;29;20036;-86
2021/12/20 10:23:25;;;;;;;7.90;1.48;;;14.50;99.90;;;;;;4900656;29;20024;-89
2021/12/20 10:26:02;;;;;;;7.90;1.90;;;14.90;99.90;;;;;;4903196;29;20020;-87
2021/12/20 10:28:36;;;;;;;8.55;1.75;;;15.00;99.90;;;;;;4900352;29;20033;-88
2021/12/20 10:31:07;;;;;;;8.57;1.80;;;15.30;99.90;;;;;;4901952;29;20032;-90
2021/12/20 10:33:33;;;;;;;7.18;2.00;;;15.80;99.90;;;;;;4894086;29;20029;-88
2021/12/20 10:36:03;;;;;;;7.53;1.85;;;16.10;99.90;;;;;;4900529;29;20419;-88
2021/12/20 10:38:43;;;;;;;8.75;1.63;;;16.30;99.90;;;;;;4901672;29;20028;-85
2021/12/20 10:41:18;;;;;;;8.45;1.95;;;16.30;99.90;;;;;;4900231;29;20056;-90
2021/12/20 10:43:55;;;;;;;7.25;2.08;;;16.50;99.90;;;;;;4899309;29;20111;-87
2021/12/20 10:46:29;;;;;;;7.38;2.13;;;16.70;99.90;;;;;;4899091;29;20058;-87
2021/12/20 10:49:14;;;;;;;11.02;2.15;;;17.00;99.90;;;;;;4898295;29;20143;-87
2021/12/20 10:51:46;;;;;;;10.77;2.10;;;17.20;99.90;;;;;;4897802;29;20028;-86
2021/12/20 10:54:15;;;;;;;10.25;2.30;;;17.40;99.90;;;;;;4895556;29;20755;-88
2021/12/20 10:56:54;;;;;;;8.88;2.10;;;17.40;99.90;;;;;;4893931;29;20049;-88
2021/12/20 10:59:25;;;;;;;10.80;2.42;;;17.60;99.90;;;;;;4897772;29;20358;-88
2021/12/20 11:02:45;;;;;;;7.50;2.10;;;17.50;99.90;;;;;;4908934;29;20027;-89
2021/12/20 11:04:48;;;;;;;12.73;2.50;;;17.50;99.90;;;;;;4906163;29;20032;-91
2021/12/20 11:10:07;;;;;;;8.98;2.55;;;17.80;99.90;;;;;;4879394;29;20048;-90
2021/12/20 11:12:33;;;;;;;12.15;2.90;;;18.00;99.90;;;;;;4895594;29;20120;-91
2021/12/20 11:15:04;;;;;;;8.88;2.13;;;17.80;99.90;;;;;;4897983;29;20029;-88
2021/12/20 11:17:36;;;;;;;11.20;2.97;;;17.80;99.90;;;;;;4896289;29;20044;-92
2021/12/20 11:20:08;;;;;;;8.40;2.23;;;17.90;99.90;;;;;;4902600;29;20058;-92
2021/12/20 11:22:33;;;;;;;12.23;3.00;;;17.80;99.90;;;;;;4897013;29;20030;-91
2021/12/20 11:25:04;;;;;;;9.20;2.35;;;17.80;99.90;;;;;;4898998;29;20073;-92
2021/12/20 11:27:32;;;;;;;9.80;2.45;;;17.80;99.90;;;;;;4895727;29;20080;-94
2021/12/20 11:30:00;;;;;;;9.73;2.85;;;17.90;99.90;;;;;;4895650;29;20044;-95
2021/12/20 11:32:27;;;;;;;10.60;2.92;;;17.90;99.90;;;;;;4897563;29;20096;-93
2021/12/20 11:34:54;;;;;;;9.85;2.55;;;18.00;99.90;;;;;;4898199;29;20064;-94
2021/12/20 11:37:23;;;;;;;11.40;2.60;;;18.00;99.90;;;;;;4896331;29;20041;-93
2021/12/20 11:39:50;;;;;;;10.00;2.60;;;18.10;99.90;;;;;;4895733;29;20080;-91
2021/12/20 11:42:19;;;;;;;10.73;2.42;;;17.50;99.90;;;;;;4896824;29;20482;-93
2021/12/20 11:44:51;;;;;;;9.02;2.67;;;16.30;99.90;;;;;;4897461;29;20028;-89
2021/12/20 11:47:54;;;;;;;13.27;2.97;;;15.10;99.90;;;;;;4898747;29;20116;-91
2021/12/20 11:50:29;;;;;;;9.32;2.40;;;13.90;99.90;;;;;;4885435;29;20033;-89
2021/12/20 11:53:11;;;;;;;14.48;2.50;;;12.80;99.90;;;;;;4897033;29;20491;-90
2021/12/20 11:55:44;;;;;;;11.85;2.78;;;12.00;99.90;;;;;;4897625;29;20063;-90
2021/12/20 11:58:30;;;;;;;8.93;2.00;;;11.50;99.90;;;;;;4897453;29;20088;-89
2021/12/20 12:01:00;;;;;;;9.93;2.42;;;11.00;99.90;;;;;;4897815;29;20036;-89
2021/12/20 12:03:28;;;;;;;7.47;2.03;;;10.50;99.90;;;;;;4898525;29;20028;-89
2021/12/20 12:05:59;;;;;;;9.00;2.42;;;10.30;99.90;;;;;;4897820;29;20092;-90
2021/12/20 12:08:40;;;;;;;11.45;1.95;;;10.10;99.90;;;;;;4898446;29;20021;-90
2021/12/20 12:11:09;;;;;;;8.48;2.22;;;10.00;99.90;;;;;;4898627;29;20107;-89
2021/12/20 12:13:50;;;;;;;11.68;2.00;;;9.80;99.90;;;;;;4899435;29;20032;-89
2021/12/20 12:16:31;;;;;;;8.38;2.00;;;9.80;99.90;;;;;;4899187;29;20061;-88
2021/12/20 12:19:02;;;;;;;9.85;1.75;;;9.70;99.90;;;;;;4916691;29;20127;-90
2021/12/20 12:21:33;;;;;;;8.05;2.05;;;9.70;99.90;;;;;;4918111;29;20036;-86
2021/12/20 12:24:00;;;;;;;10.50;2.20;;;9.60;99.90;;;;;;4914517;29;20025;-88
2021/12/20 12:26:33;;;;;;;8.27;1.88;;;9.60;99.90;;;;;;4910376;29;20055;-87
2021/12/20 12:29:00;;;;;;;7.75;2.08;;;9.50;99.90;;;;;;4910479;29;20033;-87
2021/12/20 12:31:27;;;;;;;9.00;2.42;;;9.50;99.90;;;;;;4898874;29;20516;-87
2021/12/20 12:34:09;;;;;;;8.30;2.22;;;9.40;99.90;;;;;;4899671;29;20102;-88
2021/12/20 12:36:42;;;;;;;10.57;2.22;;;9.50;99.90;;;;;;4897814;29;20043;-90
2021/12/20 12:39:26;;;;;;;7.80;1.80;;;9.40;99.90;;;;;;4901810;29;20152;-87
2021/12/20 12:41:56;;;;;;;10.02;2.08;;;9.40;99.90;;;;;;4887212;29;20054;-88
2021/12/20 12:44:27;;;;;;;9.15;1.88;;;9.30;99.90;;;;;;4900599;29;20013;-89
2021/12/20 12:46:58;;;;;;;5.53;1.50;;;9.30;99.90;;;;;;4897590;29;20127;-89
2021/12/20 12:49:29;;;;;;;9.00;2.15;;;9.20;99.90;;;;;;4915410;29;20032;-88
2021/12/20 12:52:01;;;;;;;11.00;2.30;;;9.20;99.90;;;;;;4906008;29;20032;-88
2021/12/20 12:54:32;;;;;;;12.35;2.75;;;9.10;99.90;;;;;;4910885;29;20108;-89
2021/12/20 12:57:14;;;;;;;10.98;2.20;;;9.10;99.90;;;;;;4901188;29;20388;-89
2021/12/20 13:00:05;;;;;;;9.75;2.85;;;8.90;99.90;;;;;;4900664;29;20029;-89
2021/12/20 13:02:36;;;;;;;8.68;2.22;;;8.70;99.90;;;;;;4893783;29;20497;-86
2021/12/20 13:05:17;;;;;;;10.13;2.20;;;8.60;99.90;;;;;;4918101;29;20498;-87
2021/12/20 13:07:47;;;;;;;10.50;2.47;;;8.50;99.90;;;;;;4911126;29;20028;-87
2021/12/20 13:10:29;;;;;;;12.77;2.22;;;8.50;99.90;;;;;;4904166;29;20024;-88
2021/12/20 13:13:09;;;;;;;8.65;1.95;;;8.40;99.90;;;;;;4898615;29;20372;-87